sensor_id;sensor_type;location;lat;lon;timestamp;temperature;humidity
53314;DHT22;39202;51.468;7.146;2022-07-17T00:03:16;30.30;36.00
53314;DHT22;39202;51.468;7.146;2022-07-17T00:08:18;30.30;36.00
53314;DHT22;39202;51.468;7.146;2022-07-17T00:13:21;30.30;35.40
53314;DHT22;39202;51.468;7.146;2022-07-17T00:18:23;30.30;36.10
53314;DHT22;39202;51.468;7.146;2022-07-17T00:23:24;30.30;36.00
53314;DHT22;39202;51.468;7.146;2022-07-17T00:28:27;30.30;36.00
53314;DHT22;39202;51.468;7.146;2022-07-17T00:33:29;30.30;36.00
53314;DHT22;39202;51.468;7.146;2022-07-17T00:38:31;30.30;36.00
53314;DHT22;39202;51.468;7.146;2022-07-17T00:43:34;30.30;36.10
53314;DHT22;39202;51.468;7.146;2022-07-17T00:48:35;30.20;36.10
53314;DHT22;39202;51.468;7.146;2022-07-17T00:53:37;30.20;36.10
53314;DHT22;39202;51.468;7.146;2022-07-17T00:58:44;30.20;36.10
53314;DHT22;39202;51.468;7.146;2022-07-17T01:03:46;30.20;36.10
53314;DHT22;39202;51.468;7.146;2022-07-17T01:08:48;30.20;36.20
53314;DHT22;39202;51.468;7.146;2022-07-17T01:13:51;30.10;36.10
53314;DHT22;39202;51.468;7.146;2022-07-17T01:18:53;30.10;36.10
53314;DHT22;39202;51.468;7.146;2022-07-17T01:23:56;30.10;36.20
53314;DHT22;39202;51.468;7.146;2022-07-17T01:28:58;30.10;36.10
53314;DHT22;39202;51.468;7.146;2022-07-17T01:34:00;30.10;36.20
53314;DHT22;39202;51.468;7.146;2022-07-17T01:39:04;30.10;36.90
53314;DHT22;39202;51.468;7.146;2022-07-17T01:44:06;30.10;36.30
53314;DHT22;39202;51.468;7.146;2022-07-17T01:49:09;30.00;36.20
53314;DHT22;39202;51.468;7.146;2022-07-17T01:54:12;30.00;36.20
53314;DHT22;39202;51.468;7.146;2022-07-17T01:59:13;30.00;36.20
53314;DHT22;39202;51.468;7.146;2022-07-17T02:04:15;30.00;36.20
53314;DHT22;39202;51.468;7.146;2022-07-17T02:09:18;30.00;36.20
53314;DHT22;39202;51.468;7.146;2022-07-17T02:14:20;30.00;36.30
53314;DHT22;39202;51.468;7.146;2022-07-17T02:19:21;30.00;36.30
53314;DHT22;39202;51.468;7.146;2022-07-17T02:24:24;30.00;36.30
53314;DHT22;39202;51.468;7.146;2022-07-17T02:29:26;30.00;36.40
53314;DHT22;39202;51.468;7.146;2022-07-17T02:34:28;29.90;36.30
53314;DHT22;39202;51.468;7.146;2022-07-17T02:39:31;30.00;36.30
53314;DHT22;39202;51.468;7.146;2022-07-17T02:44:32;29.90;36.30
53314;DHT22;39202;51.468;7.146;2022-07-17T02:49:34;29.90;36.30
53314;DHT22;39202;51.468;7.146;2022-07-17T02:54:37;29.90;36.40
53314;DHT22;39202;51.468;7.146;2022-07-17T02:59:39;29.90;36.40
53314;DHT22;39202;51.468;7.146;2022-07-17T03:04:41;29.90;36.40
53314;DHT22;39202;51.468;7.146;2022-07-17T03:09:44;29.90;36.40
53314;DHT22;39202;51.468;7.146;2022-07-17T03:14:46;29.80;36.40
53314;DHT22;39202;51.468;7.146;2022-07-17T03:19:47;30.10;36.60
53314;DHT22;39202;51.468;7.146;2022-07-17T03:24:50;29.80;36.40
53314;DHT22;39202;51.468;7.146;2022-07-17T03:29:53;29.90;36.50
53314;DHT22;39202;51.468;7.146;2022-07-17T03:34:55;29.80;36.50
53314;DHT22;39202;51.468;7.146;2022-07-17T03:39:58;29.80;36.50
53314;DHT22;39202;51.468;7.146;2022-07-17T03:44:59;29.80;36.40
53314;DHT22;39202;51.468;7.146;2022-07-17T03:50:01;29.80;36.40
53314;DHT22;39202;51.468;7.146;2022-07-17T03:55:05;29.80;36.40
53314;DHT22;39202;51.468;7.146;2022-07-17T04:00:08;29.70;36.40
53314;DHT22;39202;51.468;7.146;2022-07-17T04:05:11;29.80;36.50
53314;DHT22;39202;51.468;7.146;2022-07-17T04:10:14;29.80;36.50
53314;DHT22;39202;51.468;7.146;2022-07-17T04:15:16;29.80;36.50
53314;DHT22;39202;51.468;7.146;2022-07-17T04:20:38;29.70;36.50
53314;DHT22;39202;51.468;7.146;2022-07-17T04:25:43;29.70;36.50
53314;DHT22;39202;51.468;7.146;2022-07-17T04:30:45;29.70;36.50
53314;DHT22;39202;51.468;7.146;2022-07-17T04:35:46;29.70;36.50
